sensor_id;sensor_type;location;lat;lon;timestamp;P1;durP1;ratioP1;P2;durP2;ratioP2
7332;SDS011;3707;43.618;25.342;2022-08-25T00:01:31;21.60;;;8.45;;
7332;SDS011;3707;43.618;25.342;2022-08-25T00:04:00;22.75;;;8.43;;
7332;SDS011;3707;43.618;25.342;2022-08-25T00:06:28;17.05;;;8.52;;
7332;SDS011;3707;43.618;25.342;2022-08-25T00:08:55;21.27;;;9.18;;
7332;SDS011;3707;43.618;25.342;2022-08-25T00:11:24;25.63;;;8.93;;
7332;SDS011;3707;43.618;25.342;2022-08-25T00:13:56;21.08;;;8.98;;
7332;SDS011;3707;43.618;25.342;2022-08-25T00:16:24;21.70;;;8.80;;
7332;SDS011;3707;43.618;25.342;2022-08-25T00:18:52;23.10;;;8.73;;
7332;SDS011;3707;43.618;25.342;2022-08-25T00:21:22;19.33;;;7.95;;
7332;SDS011;3707;43.618;25.342;2022-08-25T00:23:49;17.10;;;8.10;;
7332;SDS011;3707;43.618;25.342;2022-08-25T00:26:17;15.15;;;8.85;;
7332;SDS011;3707;43.618;25.342;2022-08-25T00:28:44;20.90;;;8.93;;
7332;SDS011;3707;43.618;25.342;2022-08-25T00:31:13;15.48;;;8.38;;
7332;SDS011;3707;43.618;25.342;2022-08-25T00:33:42;20.25;;;9.27;;
7332;SDS011;3707;43.618;25.342;2022-08-25T00:36:10;16.45;;;8.57;;
7332;SDS011;3707;43.618;25.342;2022-08-25T00:38:37;20.45;;;8.80;;
7332;SDS011;3707;43.618;25.342;2022-08-25T00:41:04;22.30;;;8.93;;
7332;SDS011;3707;43.618;25.342;2022-08-25T00:43:35;24.08;;;8.93;;
7332;SDS011;3707;43.618;25.342;2022-08-25T00:46:09;17.30;;;8.55;;
7332;SDS011;3707;43.618;25.342;2022-08-25T00:48:38;16.50;;;8.57;;
7332;SDS011;3707;43.618;25.342;2022-08-25T00:51:09;27.85;;;8.93;;
7332;SDS011;3707;43.618;25.342;2022-08-25T00:53:41;15.35;;;8.38;;
7332;SDS011;3707;43.618;25.342;2022-08-25T00:56:09;14.95;;;8.85;;
7332;SDS011;3707;43.618;25.342;2022-08-25T00:58:39;25.98;;;8.65;;
7332;SDS011;3707;43.618;25.342;2022-08-25T01:01:07;20.08;;;8.93;;
7332;SDS011;3707;43.618;25.342;2022-08-25T01:03:34;21.58;;;8.95;;
7332;SDS011;3707;43.618;25.342;2022-08-25T01:06:03;25.23;;;9.05;;
7332;SDS011;3707;43.618;25.342;2022-08-25T01:08:31;22.48;;;8.57;;
7332;SDS011;3707;43.618;25.342;2022-08-25T01:11:00;20.08;;;8.32;;
7332;SDS011;3707;43.618;25.342;2022-08-25T01:13:31;22.52;;;8.80;;
7332;SDS011;3707;43.618;25.342;2022-08-25T01:16:00;19.33;;;9.02;;
7332;SDS011;3707;43.618;25.342;2022-08-25T01:18:28;19.75;;;9.02;;
7332;SDS011;3707;43.618;25.342;2022-08-25T01:21:08;25.42;;;9.93;;
7332;SDS011;3707;43.618;25.342;2022-08-25T01:23:35;23.90;;;8.85;;
7332;SDS011;3707;43.618;25.342;2022-08-25T01:26:04;19.60;;;9.05;;
7332;SDS011;3707;43.618;25.342;2022-08-25T01:28:33;19.85;;;9.07;;
7332;SDS011;3707;43.618;25.342;2022-08-25T01:31:01;24.08;;;8.70;;
7332;SDS011;3707;43.618;25.342;2022-08-25T01:33:29;25.17;;;8.45;;
7332;SDS011;3707;43.618;25.342;2022-08-25T01:35:56;30.60;;;10.18;;
7332;SDS011;3707;43.618;25.342;2022-08-25T01:38:24;23.60;;;9.75;;
7332;SDS011;3707;43.618;25.342;2022-08-25T01:40:50;34.38;;;11.80;;
7332;SDS011;3707;43.618;25.342;2022-08-25T01:43:21;36.33;;;12.15;;
7332;SDS011;3707;43.618;25.342;2022-08-25T01:45:55;30.15;;;11.25;;
7332;SDS011;3707;43.618;25.342;2022-08-25T01:48:23;21.58;;;9.70;;
7332;SDS011;3707;43.618;25.342;2022-08-25T01:50:50;20.90;;;9.68;;
7332;SDS011;3707;43.618;25.342;2022-08-25T01:53:18;23.73;;;9.07;;
7332;SDS011;3707;43.618;25.342;2022-08-25T01:55:49;28.08;;;8.13;;
7332;SDS011;3707;43.618;25.342;2022-08-25T01:58:26;27.25;;;7.55;;
7332;SDS011;3707;43.618;25.342;2022-08-25T02:00:55;38.70;;;7.63;;
7332;SDS011;3707;43.618;25.342;2022-08-25T02:03:24;23.08;;;7.35;;
7332;SDS011;3707;43.618;25.342;2022-08-25T02:05:52;21.27;;;7.10;;
7332;SDS011;3707;43.618;25.342;2022-08-25T02:08:20;27.63;;;7.57;;
7332;SDS011;3707;43.618;25.342;2022-08-25T02:10:47;21.00;;;7.20;;
7332;SDS011;3707;43.618;25.342;2022-08-25T02:13:16;27.88;;;7.15;;
7332;SDS011;3707;43.618;25.342;2022-08-25T02:15:45;14.52;;;6.22;;
7332;SDS011;3707;43.618;25.342;2022-08-25T02:18:14;16.20;;;6.38;;
7332;SDS011;3707;43.618;25.342;2022-08-25T02:20:42;23.45;;;8.00;;
7332;SDS011;3707;43.618;25.342;2022-08-25T02:23:09;21.10;;;7.50;;
7332;SDS011;3707;43.618;25.342;2022-08-25T02:25:38;26.55;;;7.15;;
7332;SDS011;3707;43.618;25.342;2022-08-25T02:28:06;21.55;;;7.60;;
7332;SDS011;3707;43.618;25.342;2022-08-25T02:30:36;25.00;;;6.55;;
7332;SDS011;3707;43.618;25.342;2022-08-25T02:33:04;26.80;;;6.63;;
7332;SDS011;3707;43.618;25.342;2022-08-25T02:35:31;23.20;;;7.63;;
7332;SDS011;3707;43.618;25.342;2022-08-25T02:37:58;19.23;;;7.38;;
7332;SDS011;3707;43.618;25.342;2022-08-25T02:40:25;20.30;;;6.97;;
7332;SDS011;3707;43.618;25.342;2022-08-25T02:42:52;18.77;;;8.45;;
7332;SDS011;3707;43.618;25.342;2022-08-25T02:45:19;15.65;;;7.05;;
7332;SDS011;3707;43.618;25.342;2022-08-25T02:47:48;27.80;;;7.53;;
7332;SDS011;3707;43.618;25.342;2022-08-25T02:50:15;30.42;;;8.75;;
7332;SDS011;3707;43.618;25.342;2022-08-25T02:52:41;26.25;;;9.82;;
7332;SDS011;3707;43.618;25.342;2022-08-25T02:55:09;18.60;;;8.10;;
7332;SDS011;3707;43.618;25.342;2022-08-25T02:57:38;21.50;;;7.78;;
7332;SDS011;3707;43.618;25.342;2022-08-25T03:00:06;21.33;;;8.50;;
7332;SDS011;3707;43.618;25.342;2022-08-25T03:02:34;23.77;;;8.88;;
7332;SDS011;3707;43.618;25.342;2022-08-25T03:05:03;26.05;;;9.15;;
7332;SDS011;3707;43.618;25.342;2022-08-25T03:07:32;16.40;;;8.73;;
7332;SDS011;3707;43.618;25.342;2022-08-25T03:09:58;19.20;;;8.70;;
7332;SDS011;3707;43.618;25.342;2022-08-25T03:12:29;19.30;;;8.45;;
7332;SDS011;3707;43.618;25.342;2022-08-25T03:14:56;19.58;;;8.77;;
7332;SDS011;3707;43.618;25.342;2022-08-25T03:17:23;20.27;;;8.32;;
7332;SDS011;3707;43.618;25.342;2022-08-25T03:19:50;14.30;;;8.00;;
7332;SDS011;3707;43.618;25.342;2022-08-25T03:22:18;23.55;;;8.50;;
7332;SDS011;3707;43.618;25.342;2022-08-25T03:24:45;22.02;;;8.80;;
7332;SDS011;3707;43.618;25.342;2022-08-25T03:27:12;21.65;;;9.10;;
7332;SDS011;3707;43.618;25.342;2022-08-25T03:29:38;20.33;;;8.68;;
7332;SDS011;3707;43.618;25.342;2022-08-25T03:32:07;19.27;;;7.93;;
7332;SDS011;3707;43.618;25.342;2022-08-25T03:34:34;21.00;;;9.85;;
7332;SDS011;3707;43.618;25.342;2022-08-25T03:37:01;25.80;;;8.70;;
7332;SDS011;3707;43.618;25.342;2022-08-25T03:39:29;25.30;;;9.90;;
7332;SDS011;3707;43.618;25.342;2022-08-25T03:41:56;21.25;;;9.30;;
7332;SDS011;3707;43.618;25.342;2022-08-25T03:44:22;22.83;;;9.68;;
7332;SDS011;3707;43.618;25.342;2022-08-25T03:46:50;19.73;;;8.82;;
7332;SDS011;3707;43.618;25.342;2022-08-25T03:49:18;23.25;;;8.57;;
7332;SDS011;3707;43.618;25.342;2022-08-25T03:51:49;19.23;;;8.88;;
7332;SDS011;3707;43.618;25.342;2022-08-25T03:54:18;22.08;;;8.35;;
7332;SDS011;3707;43.618;25.342;2022-08-25T03:56:48;23.23;;;8.25;;
7332;SDS011;3707;43.618;25.342;2022-08-25T03:59:15;23.73;;;8.35;;
7332;SDS011;3707;43.618;25.342;2022-08-25T04:01:42;19.48;;;8.90;;
7332;SDS011;3707;43.618;25.342;2022-08-25T04:04:11;34.15;;;8.57;;
7332;SDS011;3707;43.618;25.342;2022-08-25T04:06:39;27.35;;;8.30;;
7332;SDS011;3707;43.618;25.342;2022-08-25T04:09:07;25.58;;;8.77;;
7332;SDS011;3707;43.618;25.342;2022-08-25T04:11:34;23.70;;;8.15;;
7332;SDS011;3707;43.618;25.342;2022-08-25T04:14:03;24.08;;;7.32;;
7332;SDS011;3707;43.618;25.342;2022-08-25T04:16:31;37.63;;;8.02;;
7332;SDS011;3707;43.618;25.342;2022-08-25T04:19:00;24.95;;;7.30;;
7332;SDS011;3707;43.618;25.342;2022-08-25T04:21:30;27.80;;;7.25;;
7332;SDS011;3707;43.618;25.342;2022-08-25T04:23:57;24.80;;;7.95;;
7332;SDS011;3707;43.618;25.342;2022-08-25T04:26:24;23.50;;;7.28;;
7332;SDS011;3707;43.618;25.342;2022-08-25T04:28:55;28.35;;;7.72;;
7332;SDS011;3707;43.618;25.342;2022-08-25T04:31:26;32.13;;;7.40;;
7332;SDS011;3707;43.618;25.342;2022-08-25T04:33:53;16.95;;;7.53;;
7332;SDS011;3707;43.618;25.342;2022-08-25T04:36:21;24.40;;;7.80;;
7332;SDS011;3707;43.618;25.342;2022-08-25T04:38:48;14.73;;;7.22;;
7332;SDS011;3707;43.618;25.342;2022-08-25T04:41:15;21.88;;;8.02;;
7332;SDS011;3707;43.618;25.342;2022-08-25T04:43:44;20.27;;;7.25;;
7332;SDS011;3707;43.618;25.342;2022-08-25T04:46:12;23.08;;;7.53;;
7332;SDS011;3707;43.618;25.342;2022-08-25T04:48:41;23.45;;;7.82;;
7332;SDS011;3707;43.618;25.342;2022-08-25T04:51:10;29.08;;;8.80;;
7332;SDS011;3707;43.618;25.342;2022-08-25T04:53:38;24.30;;;8.15;;
7332;SDS011;3707;43.618;25.342;2022-08-25T04:56:06;25.98;;;8.45;;
7332;SDS011;3707;43.618;25.342;2022-08-25T04:58:34;18.38;;;8.82;;
7332;SDS011;3707;43.618;25.342;2022-08-25T05:01:02;27.27;;;8.55;;
7332;SDS011;3707;43.618;25.342;2022-08-25T05:03:29;30.13;;;8.35;;
7332;SDS011;3707;43.618;25.342;2022-08-25T05:05:58;28.30;;;8.82;;
7332;SDS011;3707;43.618;25.342;2022-08-25T05:08:25;27.90;;;7.80;;
7332;SDS011;3707;43.618;25.342;2022-08-25T05:10:52;20.83;;;7.43;;
7332;SDS011;3707;43.618;25.342;2022-08-25T05:13:20;28.80;;;8.13;;
7332;SDS011;3707;43.618;25.342;2022-08-25T05:15:51;25.95;;;8.80;;
7332;SDS011;3707;43.618;25.342;2022-08-25T05:18:19;20.88;;;7.45;;
7332;SDS011;3707;43.618;25.342;2022-08-25T05:20:47;25.80;;;8.80;;
7332;SDS011;3707;43.618;25.342;2022-08-25T05:23:15;23.05;;;6.72;;
7332;SDS011;3707;43.618;25.342;2022-08-25T05:25:42;27.77;;;7.95;;
7332;SDS011;3707;43.618;25.342;2022-08-25T05:28:09;21.20;;;8.23;;
7332;SDS011;3707;43.618;25.342;2022-08-25T05:30:37;18.73;;;7.47;;
7332;SDS011;3707;43.618;25.342;2022-08-25T05:33:04;26.80;;;8.60;;
7332;SDS011;3707;43.618;25.342;2022-08-25T05:35:32;31.30;;;8.88;;
7332;SDS011;3707;43.618;25.342;2022-08-25T05:37:59;23.15;;;8.73;;
7332;SDS011;3707;43.618;25.342;2022-08-25T05:40:29;53.63;;;24.70;;
7332;SDS011;3707;43.618;25.342;2022-08-25T05:42:57;22.75;;;9.13;;
7332;SDS011;3707;43.618;25.342;2022-08-25T05:45:24;23.08;;;7.63;;
7332;SDS011;3707;43.618;25.342;2022-08-25T05:47:50;21.80;;;7.53;;
7332;SDS011;3707;43.618;25.342;2022-08-25T05:50:17;28.13;;;6.88;;
7332;SDS011;3707;43.618;25.342;2022-08-25T05:52:44;23.83;;;8.68;;
7332;SDS011;3707;43.618;25.342;2022-08-25T05:55:11;23.45;;;7.82;;
7332;SDS011;3707;43.618;25.342;2022-08-25T05:57:41;28.15;;;7.22;;
7332;SDS011;3707;43.618;25.342;2022-08-25T06:00:08;37.92;;;7.18;;
7332;SDS011;3707;43.618;25.342;2022-08-25T06:02:36;30.95;;;6.82;;
7332;SDS011;3707;43.618;25.342;2022-08-25T06:05:09;26.48;;;6.10;;
7332;SDS011;3707;43.618;25.342;2022-08-25T06:07:38;30.10;;;6.28;;
7332;SDS011;3707;43.618;25.342;2022-08-25T06:10:05;30.95;;;5.97;;
7332;SDS011;3707;43.618;25.342;2022-08-25T06:12:36;19.27;;;5.75;;
7332;SDS011;3707;43.618;25.342;2022-08-25T06:15:05;25.73;;;6.68;;
7332;SDS011;3707;43.618;25.342;2022-08-25T06:17:33;29.02;;;7.55;;
7332;SDS011;3707;43.618;25.342;2022-08-25T06:20:05;25.73;;;6.80;;
7332;SDS011;3707;43.618;25.342;2022-08-25T06:22:33;21.88;;;5.82;;
7332;SDS011;3707;43.618;25.342;2022-08-25T06:25:02;24.98;;;5.90;;
7332;SDS011;3707;43.618;25.342;2022-08-25T06:27:29;26.88;;;5.78;;
7332;SDS011;3707;43.618;25.342;2022-08-25T06:29:56;21.45;;;5.90;;
7332;SDS011;3707;43.618;25.342;2022-08-25T06:32:24;27.90;;;5.55;;
7332;SDS011;3707;43.618;25.342;2022-08-25T06:34:51;23.83;;;5.45;;
7332;SDS011;3707;43.618;25.342;2022-08-25T06:37:18;26.83;;;5.85;;
7332;SDS011;3707;43.618;25.342;2022-08-25T06:39:45;23.85;;;5.32;;
7332;SDS011;3707;43.618;25.342;2022-08-25T06:42:11;37.85;;;6.68;;
7332;SDS011;3707;43.618;25.342;2022-08-25T06:44:38;34.63;;;6.07;;
7332;SDS011;3707;43.618;25.342;2022-08-25T06:47:05;30.80;;;5.32;;
7332;SDS011;3707;43.618;25.342;2022-08-25T06:49:33;26.80;;;5.50;;
7332;SDS011;3707;43.618;25.342;2022-08-25T06:52:00;20.63;;;4.55;;
7332;SDS011;3707;43.618;25.342;2022-08-25T06:54:27;25.80;;;4.65;;
7332;SDS011;3707;43.618;25.342;2022-08-25T06:56:54;31.67;;;5.57;;
7332;SDS011;3707;43.618;25.342;2022-08-25T06:59:21;18.35;;;4.70;;
7332;SDS011;3707;43.618;25.342;2022-08-25T07:01:48;24.30;;;4.97;;
7332;SDS011;3707;43.618;25.342;2022-08-25T07:04:14;22.20;;;4.97;;
7332;SDS011;3707;43.618;25.342;2022-08-25T07:06:43;52.90;;;6.00;;
7332;SDS011;3707;43.618;25.342;2022-08-25T07:09:11;45.10;;;5.95;;
7332;SDS011;3707;43.618;25.342;2022-08-25T07:11:38;27.35;;;4.72;;
7332;SDS011;3707;43.618;25.342;2022-08-25T07:14:07;29.60;;;5.13;;
7332;SDS011;3707;43.618;25.342;2022-08-25T07:16:36;22.67;;;5.10;;
7332;SDS011;3707;43.618;25.342;2022-08-25T07:19:03;23.95;;;5.57;;
7332;SDS011;3707;43.618;25.342;2022-08-25T07:21:31;22.17;;;4.50;;
7332;SDS011;3707;43.618;25.342;2022-08-25T07:24:03;23.55;;;4.45;;
7332;SDS011;3707;43.618;25.342;2022-08-25T07:26:31;23.15;;;4.43;;
7332;SDS011;3707;43.618;25.342;2022-08-25T07:29:00;25.13;;;3.97;;
7332;SDS011;3707;43.618;25.342;2022-08-25T07:31:28;34.30;;;4.97;;
7332;SDS011;3707;43.618;25.342;2022-08-25T07:33:55;22.00;;;5.03;;
7332;SDS011;3707;43.618;25.342;2022-08-25T07:36:39;32.50;;;4.90;;
7332;SDS011;3707;43.618;25.342;2022-08-25T07:39:08;33.03;;;4.93;;
7332;SDS011;3707;43.618;25.342;2022-08-25T07:41:36;30.48;;;4.53;;
7332;SDS011;3707;43.618;25.342;2022-08-25T07:44:04;36.85;;;5.07;;
7332;SDS011;3707;43.618;25.342;2022-08-25T07:46:31;24.92;;;4.85;;
7332;SDS011;3707;43.618;25.342;2022-08-25T07:48:59;32.65;;;5.18;;
7332;SDS011;3707;43.618;25.342;2022-08-25T07:51:25;24.30;;;4.80;;
7332;SDS011;3707;43.618;25.342;2022-08-25T07:53:52;27.80;;;4.80;;
7332;SDS011;3707;43.618;25.342;2022-08-25T07:56:21;20.95;;;4.35;;
7332;SDS011;3707;43.618;25.342;2022-08-25T07:58:47;17.73;;;4.20;;
7332;SDS011;3707;43.618;25.342;2022-08-25T08:01:14;30.48;;;4.50;;
7332;SDS011;3707;43.618;25.342;2022-08-25T08:03:43;25.40;;;4.68;;
7332;SDS011;3707;43.618;25.342;2022-08-25T08:06:10;26.38;;;4.60;;
7332;SDS011;3707;43.618;25.342;2022-08-25T08:08:38;23.73;;;4.15;;
7332;SDS011;3707;43.618;25.342;2022-08-25T08:11:13;23.40;;;4.50;;
7332;SDS011;3707;43.618;25.342;2022-08-25T08:13:44;28.75;;;4.75;;
7332;SDS011;3707;43.618;25.342;2022-08-25T08:16:12;20.17;;;4.30;;
7332;SDS011;3707;43.618;25.342;2022-08-25T08:18:40;23.27;;;4.80;;
7332;SDS011;3707;43.618;25.342;2022-08-25T08:21:10;16.75;;;3.88;;
7332;SDS011;3707;43.618;25.342;2022-08-25T08:23:37;24.55;;;4.45;;
7332;SDS011;3707;43.618;25.342;2022-08-25T08:26:04;20.80;;;3.83;;
7332;SDS011;3707;43.618;25.342;2022-08-25T08:28:31;20.08;;;4.40;;
7332;SDS011;3707;43.618;25.342;2022-08-25T08:31:00;26.33;;;4.22;;
7332;SDS011;3707;43.618;25.342;2022-08-25T08:33:27;22.75;;;4.88;;
7332;SDS011;3707;43.618;25.342;2022-08-25T08:35:56;22.35;;;4.53;;
7332;SDS011;3707;43.618;25.342;2022-08-25T08:38:27;32.70;;;4.03;;
7332;SDS011;3707;43.618;25.342;2022-08-25T08:40:57;22.08;;;5.05;;
7332;SDS011;3707;43.618;25.342;2022-08-25T08:43:51;26.88;;;5.40;;
7332;SDS011;3707;43.618;25.342;2022-08-25T08:46:23;24.60;;;3.83;;
7332;SDS011;3707;43.618;25.342;2022-08-25T08:49:00;29.65;;;5.20;;
7332;SDS011;3707;43.618;25.342;2022-08-25T08:51:32;17.77;;;4.13;;
7332;SDS011;3707;43.618;25.342;2022-08-25T08:54:15;24.05;;;5.10;;
7332;SDS011;3707;43.618;25.342;2022-08-25T08:56:49;24.80;;;4.82;;
7332;SDS011;3707;43.618;25.342;2022-08-25T08:59:27;23.38;;;4.18;;
7332;SDS011;3707;43.618;25.342;2022-08-25T09:02:03;23.80;;;4.45;;
7332;SDS011;3707;43.618;25.342;2022-08-25T09:04:39;20.92;;;4.22;;
7332;SDS011;3707;43.618;25.342;2022-08-25T09:07:09;17.52;;;4.32;;
7332;SDS011;3707;43.618;25.342;2022-08-25T09:09:40;21.33;;;4.07;;
7332;SDS011;3707;43.618;25.342;2022-08-25T09:12:10;14.00;;;3.88;;
7332;SDS011;3707;43.618;25.342;2022-08-25T09:14:45;11.63;;;3.58;;
7332;SDS011;3707;43.618;25.342;2022-08-25T09:17:27;19.08;;;4.07;;
7332;SDS011;3707;43.618;25.342;2022-08-25T09:20:16;18.48;;;4.38;;
7332;SDS011;3707;43.618;25.342;2022-08-25T09:23:00;16.45;;;4.07;;
7332;SDS011;3707;43.618;25.342;2022-08-25T09:25:38;14.02;;;3.70;;
7332;SDS011;3707;43.618;25.342;2022-08-25T09:28:12;15.10;;;4.00;;
7332;SDS011;3707;43.618;25.342;2022-08-25T09:30:48;28.77;;;4.60;;
7332;SDS011;3707;43.618;25.342;2022-08-25T09:33:21;25.85;;;4.07;;
7332;SDS011;3707;43.618;25.342;2022-08-25T09:35:50;17.35;;;4.13;;
7332;SDS011;3707;43.618;25.342;2022-08-25T09:38:19;18.13;;;4.13;;
7332;SDS011;3707;43.618;25.342;2022-08-25T09:40:47;19.65;;;3.55;;
7332;SDS011;3707;43.618;25.342;2022-08-25T09:43:20;21.45;;;4.55;;
7332;SDS011;3707;43.618;25.342;2022-08-25T09:45:49;27.00;;;4.85;;
7332;SDS011;3707;43.618;25.342;2022-08-25T09:48:26;19.20;;;3.70;;
7332;SDS011;3707;43.618;25.342;2022-08-25T09:50:56;14.02;;;4.45;;
7332;SDS011;3707;43.618;25.342;2022-08-25T09:53:25;25.73;;;4.65;;
7332;SDS011;3707;43.618;25.342;2022-08-25T09:55:55;25.63;;;4.00;;
7332;SDS011;3707;43.618;25.342;2022-08-25T09:58:28;16.13;;;3.83;;
7332;SDS011;3707;43.618;25.342;2022-08-25T10:00:59;18.38;;;4.88;;
7332;SDS011;3707;43.618;25.342;2022-08-25T10:03:56;23.75;;;4.97;;
7332;SDS011;3707;43.618;25.342;2022-08-25T10:06:26;19.35;;;4.13;;
7332;SDS011;3707;43.618;25.342;2022-08-25T10:08:57;17.80;;;3.70;;
7332;SDS011;3707;43.618;25.342;2022-08-25T10:11:34;20.30;;;4.03;;
7332;SDS011;3707;43.618;25.342;2022-08-25T10:14:14;25.58;;;5.07;;
7332;SDS011;3707;43.618;25.342;2022-08-25T10:16:45;18.20;;;4.18;;
7332;SDS011;3707;43.618;25.342;2022-08-25T10:19:22;23.45;;;4.53;;
7332;SDS011;3707;43.618;25.342;2022-08-25T10:22:06;17.95;;;3.85;;
7332;SDS011;3707;43.618;25.342;2022-08-25T10:24:35;27.08;;;4.32;;
7332;SDS011;3707;43.618;25.342;2022-08-25T10:27:05;20.55;;;4.05;;
7332;SDS011;3707;43.618;25.342;2022-08-25T10:32:34;18.52;;;4.93;;
7332;SDS011;3707;43.618;25.342;2022-08-25T10:35:12;21.48;;;3.85;;
7332;SDS011;3707;43.618;25.342;2022-08-25T10:37:44;18.40;;;4.75;;
7332;SDS011;3707;43.618;25.342;2022-08-25T10:40:19;15.77;;;3.72;;
7332;SDS011;3707;43.618;25.342;2022-08-25T10:42:52;29.60;;;4.18;;
7332;SDS011;3707;43.618;25.342;2022-08-25T10:45:31;18.42;;;5.32;;
7332;SDS011;3707;43.618;25.342;2022-08-25T10:48:16;16.77;;;4.30;;
7332;SDS011;3707;43.618;25.342;2022-08-25T10:50:54;11.18;;;3.75;;
7332;SDS011;3707;43.618;25.342;2022-08-25T10:53:27;16.77;;;3.67;;
7332;SDS011;3707;43.618;25.342;2022-08-25T10:56:03;20.55;;;3.67;;
7332;SDS011;3707;43.618;25.342;2022-08-25T11:01:39;22.20;;;4.53;;
7332;SDS011;3707;43.618;25.342;2022-08-25T11:04:24;12.80;;;4.07;;
7332;SDS011;3707;43.618;25.342;2022-08-25T11:06:59;14.75;;;3.95;;
7332;SDS011;3707;43.618;25.342;2022-08-25T11:09:32;14.32;;;3.83;;
7332;SDS011;3707;43.618;25.342;2022-08-25T11:12:05;17.65;;;3.85;;
7332;SDS011;3707;43.618;25.342;2022-08-25T11:14:36;11.25;;;4.30;;
7332;SDS011;3707;43.618;25.342;2022-08-25T11:17:09;19.15;;;4.25;;
7332;SDS011;3707;43.618;25.342;2022-08-25T11:19:39;13.10;;;3.85;;
7332;SDS011;3707;43.618;25.342;2022-08-25T11:22:12;10.45;;;3.72;;
7332;SDS011;3707;43.618;25.342;2022-08-25T11:24:50;29.10;;;4.18;;
7332;SDS011;3707;43.618;25.342;2022-08-25T11:27:27;17.17;;;3.72;;
7332;SDS011;3707;43.618;25.342;2022-08-25T11:30:02;20.60;;;3.65;;
7332;SDS011;3707;43.618;25.342;2022-08-25T11:32:32;15.02;;;3.90;;
7332;SDS011;3707;43.618;25.342;2022-08-25T11:35:00;9.60;;;3.13;;
7332;SDS011;3707;43.618;25.342;2022-08-25T11:37:30;14.80;;;3.42;;
7332;SDS011;3707;43.618;25.342;2022-08-25T11:40:06;27.02;;;4.28;;
7332;SDS011;3707;43.618;25.342;2022-08-25T11:45:42;13.55;;;3.70;;
7332;SDS011;3707;43.618;25.342;2022-08-25T11:48:28;21.88;;;3.92;;
7332;SDS011;3707;43.618;25.342;2022-08-25T11:51:04;11.70;;;3.47;;
7332;SDS011;3707;43.618;25.342;2022-08-25T11:53:34;18.15;;;3.75;;
7332;SDS011;3707;43.618;25.342;2022-08-25T11:56:03;13.20;;;4.13;;
7332;SDS011;3707;43.618;25.342;2022-08-25T11:58:36;9.75;;;4.00;;
7332;SDS011;3707;43.618;25.342;2022-08-25T12:01:09;18.05;;;3.70;;
7332;SDS011;3707;43.618;25.342;2022-08-25T12:04:10;17.30;;;4.22;;
7332;SDS011;3707;43.618;25.342;2022-08-25T12:12:35;31.42;;;4.38;;
7332;SDS011;3707;43.618;25.342;2022-08-25T12:15:12;12.07;;;3.75;;
7332;SDS011;3707;43.618;25.342;2022-08-25T12:17:47;13.43;;;3.92;;
7332;SDS011;3707;43.618;25.342;2022-08-25T12:23:40;18.92;;;4.13;;
7332;SDS011;3707;43.618;25.342;2022-08-25T12:26:11;20.27;;;3.72;;
7332;SDS011;3707;43.618;25.342;2022-08-25T12:28:48;15.63;;;3.67;;
7332;SDS011;3707;43.618;25.342;2022-08-25T12:31:39;19.00;;;3.65;;
7332;SDS011;3707;43.618;25.342;2022-08-25T12:37:12;9.25;;;3.53;;
7332;SDS011;3707;43.618;25.342;2022-08-25T12:39:42;13.80;;;3.40;;
7332;SDS011;3707;43.618;25.342;2022-08-25T12:42:19;21.33;;;3.47;;
7332;SDS011;3707;43.618;25.342;2022-08-25T12:45:06;22.58;;;3.65;;
7332;SDS011;3707;43.618;25.342;2022-08-25T12:47:38;14.65;;;3.50;;
7332;SDS011;3707;43.618;25.342;2022-08-25T12:50:29;25.75;;;4.00;;
7332;SDS011;3707;43.618;25.342;2022-08-25T12:53:11;20.17;;;3.88;;
7332;SDS011;3707;43.618;25.342;2022-08-25T12:55:45;25.63;;;5.10;;
7332;SDS011;3707;43.618;25.342;2022-08-25T12:58:15;21.08;;;3.97;;
7332;SDS011;3707;43.618;25.342;2022-08-25T13:00:50;18.80;;;3.65;;
7332;SDS011;3707;43.618;25.342;2022-08-25T13:03:41;11.07;;;3.45;;
7332;SDS011;3707;43.618;25.342;2022-08-25T13:06:39;16.00;;;3.50;;
7332;SDS011;3707;43.618;25.342;2022-08-25T13:09:43;19.08;;;3.50;;
7332;SDS011;3707;43.618;25.342;2022-08-25T13:12:35;17.30;;;3.42;;
7332;SDS011;3707;43.618;25.342;2022-08-25T13:15:10;11.27;;;3.30;;
7332;SDS011;3707;43.618;25.342;2022-08-25T13:17:40;19.80;;;3.33;;
7332;SDS011;3707;43.618;25.342;2022-08-25T13:20:12;21.25;;;3.40;;
7332;SDS011;3707;43.618;25.342;2022-08-25T13:22:40;12.32;;;3.15;;
7332;SDS011;3707;43.618;25.342;2022-08-25T13:25:13;12.70;;;3.17;;
7332;SDS011;3707;43.618;25.342;2022-08-25T13:27:41;22.45;;;3.72;;
7332;SDS011;3707;43.618;25.342;2022-08-25T13:30:18;14.80;;;3.90;;
7332;SDS011;3707;43.618;25.342;2022-08-25T13:32:50;25.08;;;3.92;;
7332;SDS011;3707;43.618;25.342;2022-08-25T13:35:19;24.30;;;3.63;;
7332;SDS011;3707;43.618;25.342;2022-08-25T13:37:50;24.60;;;3.83;;
7332;SDS011;3707;43.618;25.342;2022-08-25T13:40:22;19.73;;;3.28;;
7332;SDS011;3707;43.618;25.342;2022-08-25T13:42:51;23.92;;;4.10;;
7332;SDS011;3707;43.618;25.342;2022-08-25T13:45:20;23.65;;;4.07;;
7332;SDS011;3707;43.618;25.342;2022-08-25T13:47:49;24.95;;;3.85;;
7332;SDS011;3707;43.618;25.342;2022-08-25T13:50:27;16.35;;;3.05;;
7332;SDS011;3707;43.618;25.342;2022-08-25T13:52:57;24.63;;;4.03;;
7332;SDS011;3707;43.618;25.342;2022-08-25T13:55:27;25.38;;;3.47;;
7332;SDS011;3707;43.618;25.342;2022-08-25T13:57:58;38.17;;;4.38;;
7332;SDS011;3707;43.618;25.342;2022-08-25T14:00:30;22.00;;;4.40;;
7332;SDS011;3707;43.618;25.342;2022-08-25T14:03:01;14.50;;;3.58;;
7332;SDS011;3707;43.618;25.342;2022-08-25T14:05:31;39.35;;;3.78;;
7332;SDS011;3707;43.618;25.342;2022-08-25T14:08:04;25.25;;;4.47;;
7332;SDS011;3707;43.618;25.342;2022-08-25T14:10:37;23.75;;;3.97;;
7332;SDS011;3707;43.618;25.342;2022-08-25T14:13:06;18.83;;;3.45;;
7332;SDS011;3707;43.618;25.342;2022-08-25T14:15:36;20.38;;;3.85;;
7332;SDS011;3707;43.618;25.342;2022-08-25T14:18:05;16.80;;;3.55;;
7332;SDS011;3707;43.618;25.342;2022-08-25T14:20:36;23.40;;;4.00;;
7332;SDS011;3707;43.618;25.342;2022-08-25T14:23:10;21.17;;;3.53;;
7332;SDS011;3707;43.618;25.342;2022-08-25T14:25:41;21.83;;;4.40;;
7332;SDS011;3707;43.618;25.342;2022-08-25T14:28:09;22.02;;;4.07;;
7332;SDS011;3707;43.618;25.342;2022-08-25T14:30:39;25.35;;;3.78;;
7332;SDS011;3707;43.618;25.342;2022-08-25T14:33:09;23.60;;;4.55;;
7332;SDS011;3707;43.618;25.342;2022-08-25T14:35:37;23.70;;;4.20;;
7332;SDS011;3707;43.618;25.342;2022-08-25T14:38:07;16.95;;;4.47;;
7332;SDS011;3707;43.618;25.342;2022-08-25T14:40:36;32.17;;;4.30;;
7332;SDS011;3707;43.618;25.342;2022-08-25T14:43:03;16.40;;;4.13;;
7332;SDS011;3707;43.618;25.342;2022-08-25T14:45:30;25.48;;;4.13;;
7332;SDS011;3707;43.618;25.342;2022-08-25T14:47:58;30.70;;;3.97;;
7332;SDS011;3707;43.618;25.342;2022-08-25T14:50:31;23.50;;;4.55;;
7332;SDS011;3707;43.618;25.342;2022-08-25T14:52:58;23.42;;;4.50;;
7332;SDS011;3707;43.618;25.342;2022-08-25T14:55:26;22.92;;;3.85;;
7332;SDS011;3707;43.618;25.342;2022-08-25T14:57:53;20.60;;;4.13;;
7332;SDS011;3707;43.618;25.342;2022-08-25T15:00:20;13.98;;;4.30;;
7332;SDS011;3707;43.618;25.342;2022-08-25T15:02:47;21.33;;;4.03;;
7332;SDS011;3707;43.618;25.342;2022-08-25T15:05:16;18.95;;;4.25;;
7332;SDS011;3707;43.618;25.342;2022-08-25T15:07:50;28.05;;;4.30;;
7332;SDS011;3707;43.618;25.342;2022-08-25T15:10:37;21.42;;;3.92;;
7332;SDS011;3707;43.618;25.342;2022-08-25T15:13:04;22.13;;;5.07;;
7332;SDS011;3707;43.618;25.342;2022-08-25T15:15:31;22.08;;;4.18;;
7332;SDS011;3707;43.618;25.342;2022-08-25T15:17:58;22.15;;;4.32;;
7332;SDS011;3707;43.618;25.342;2022-08-25T15:20:25;19.77;;;3.60;;
7332;SDS011;3707;43.618;25.342;2022-08-25T15:22:53;31.35;;;5.38;;
7332;SDS011;3707;43.618;25.342;2022-08-25T15:25:20;17.42;;;4.35;;
7332;SDS011;3707;43.618;25.342;2022-08-25T15:27:47;24.92;;;4.22;;
7332;SDS011;3707;43.618;25.342;2022-08-25T15:30:14;24.95;;;4.82;;